1 Minute Report
Date Time Wind Direction Wind Speed Wind Gust Wind Variable Altimeter Temperature Dewpoint Relative Humidity Visibility Ceiling Precip Present Weather Density Alt Wind Chill Heat Index
18/08/2100:2000000N/AN/A30.1465(F), 18(C)64(F), 18(C)100%10SCT055N/AN/AN/A65 FN/A1716
18/08/2100:1500000N/AN/A30.1466(F), 19(C)63(F), 17(C)88%10SCT055N/AN/AN/A66 FN/A1711
18/08/2100:1000000N/AN/A30.1368(F), 20(C)65(F), 18(C)88%10BKN055N/AN/AN/A68 FN/A1706
18/08/2100:0500000N/AN/A30.1368(F), 20(C)64(F), 18(C)88%10SCT055N/AN/AN/A68 FN/A1701
18/08/2100:0000000N/AN/A30.1368(F), 20(C)62(F), 17(C)83%10SCT055N/AN/AN/A68 FN/A1696
18/08/2023:5500000N/AN/A30.1368(F), 20(C)62(F), 17(C)83%10SCT055N/AN/AN/A68 FN/A1691
18/08/2023:5000000N/AN/A30.1368(F), 20(C)62(F), 17(C)83%10SCT055N/AN/AN/A68 FN/A1686
18/08/2023:4500000N/AN/A30.1368(F), 20(C)63(F), 17(C)83%10SCT055N/AN/AN/A68 FN/A1681
18/08/2023:4000000N/AN/A30.1368(F), 20(C)63(F), 17(C)83%10CLRN/AN/AN/A68 FN/A1676
18/08/2023:3500000N/AN/A30.1268(F), 20(C)63(F), 17(C)83%10SCT055N/AN/AN/A68 FN/A1671
18/08/2023:3000000N/AN/A30.1268(F), 20(C)63(F), 17(C)83%10SCT055N/AN/AN/A68 FN/A1666
18/08/2023:2500000N/AN/A30.1268(F), 20(C)62(F), 17(C)83%10SCT055N/AN/AN/A68 FN/A1661
18/08/2023:2000000N/AN/A30.1268(F), 20(C)61(F), 16(C)78%10SCT055N/AN/AN/A68 FN/A1656
18/08/2023:1500000N/AN/A30.1268(F), 20(C)61(F), 16(C)78%10SCT055N/AN/AN/A68 FN/A1651
18/08/2023:1000000N/AN/A30.1270(F), 21(C)61(F), 16(C)73%10SCT055N/AN/AN/A70 FN/A1646
18/08/2023:0500000N/AN/A30.1272(F), 22(C)62(F), 17(C)73%10SCT055N/AN/AN/AN/A74 F1641
18/08/2023:0000000N/AN/A30.1272(F), 22(C)62(F), 17(C)73%10CLRN/AN/AN/AN/A74 F1636
18/08/2022:5500000N/AN/A30.1272(F), 22(C)63(F), 17(C)73%10CLRN/AN/AN/AN/A74 F1631
18/08/2022:5000000N/AN/A30.1273(F), 23(C)62(F), 17(C)69%10CLRN/AN/AN/AN/A75 F1626
18/08/2022:4500000N/AN/A30.1273(F), 23(C)61(F), 16(C)65%10CLRN/AN/AN/AN/A76 F1621
18/08/2022:4000000N/AN/A30.1273(F), 23(C)62(F), 17(C)69%10CLRN/AN/AN/AN/A75 F1616
18/08/2022:3500000N/AN/A30.1273(F), 23(C)63(F), 17(C)69%10CLRN/AN/AN/AN/A75 F1611
18/08/2022:3000000N/AN/A30.1273(F), 23(C)61(F), 16(C)65%10CLRN/AN/AN/AN/A76 F1606
18/08/2022:2500000N/AN/A30.1273(F), 23(C)61(F), 16(C)65%10CLRN/AN/AN/AN/A76 F1601
18/08/2022:2000000N/AN/A30.1273(F), 23(C)61(F), 16(C)65%10CLRN/AN/AN/AN/A76 F1596
18/08/2022:1500000N/AN/A30.1273(F), 23(C)61(F), 16(C)65%10CLRN/AN/AN/AN/A76 F1591
18/08/2022:1000000N/AN/A30.1273(F), 23(C)61(F), 16(C)65%10CLRN/AN/AN/AN/A76 F1586
18/08/2022:0500000N/AN/A30.1273(F), 23(C)60(F), 16(C)65%10CLRN/AN/AN/AN/A76 F1581
18/08/2022:0024003N/AN/A30.1273(F), 23(C)61(F), 16(C)65%10SCT060N/AN/AN/AN/A76 F1576
18/08/2021:5500000N/AN/A30.1273(F), 23(C)60(F), 16(C)65%10SCT060N/AN/AN/AN/A76 F1571
18/08/2021:5021003N/AN/A30.1273(F), 23(C)60(F), 16(C)65%10SCT060N/AN/AN/AN/A76 F1566
18/08/2021:4517003N/AN/A30.1273(F), 23(C)60(F), 16(C)65%10SCT060N/AN/AN/AN/A76 F1561
18/08/2021:4020003N/AN/A30.1273(F), 23(C)59(F), 15(C)61%10SCT060N/AN/AN/AN/A76 F1556
18/08/2021:3500000N/AN/A30.1273(F), 23(C)61(F), 16(C)65%10BKN060N/AN/AN/AN/A76 F1551
18/08/2021:3000000N/AN/A30.1173(F), 23(C)60(F), 16(C)65%10SCT060N/AN/AN/AN/A76 F1546
18/08/2021:2500000N/AN/A30.1273(F), 23(C)60(F), 16(C)65%10SCT060N/AN/AN/AN/A76 F1541
18/08/2021:2016003N/AN/A30.1273(F), 23(C)59(F), 15(C)61%10SCT060N/AN/AN/AN/A76 F1536
18/08/2021:1520006N/AN/A30.1173(F), 23(C)60(F), 16(C)65%10BKN060N/AN/AN/AN/A76 F1531
18/08/2021:1019003N/AN/A30.1173(F), 23(C)61(F), 16(C)65%10BKN060N/AN/AN/AN/A76 F1526
18/08/2021:0500000N/AN/A30.1173(F), 23(C)60(F), 16(C)65%10BKN060N/AN/AN/AN/A76 F1521
18/08/2021:0015004N/AN/A30.1173(F), 23(C)60(F), 16(C)65%10BKN060N/AN/AN/AN/A76 F1516
18/08/2020:5520003N/AN/A30.1173(F), 23(C)59(F), 15(C)61%10BKN060N/AN/AN/AN/A76 F1511
18/08/2020:5019003N/AN/A30.1173(F), 23(C)59(F), 15(C)61%10OVC060N/AN/AN/AN/A76 F1506
18/08/2020:4519003N/AN/A30.1173(F), 23(C)60(F), 16(C)65%10OVC050N/AN/AN/AN/A76 F1501
18/08/2020:4000000N/AN/A30.1173(F), 23(C)60(F), 16(C)65%10OVC050N/AN/AN/AN/A76 F1496
18/08/2020:3500000N/AN/A30.1173(F), 23(C)60(F), 16(C)65%10OVC050N/AN/AN/AN/A76 F1491
18/08/2020:3021004N/AN/A30.1173(F), 23(C)61(F), 16(C)65%10OVC050N/AN/AN/AN/A76 F1486
18/08/2020:2500000N/AN/A30.1273(F), 23(C)61(F), 16(C)65%10OVC050N/AN/AN/AN/A76 F1481
18/08/2020:2000000N/AN/A30.1273(F), 23(C)61(F), 16(C)65%10OVC050N/AN/AN/AN/A76 F1476
18/08/2020:1500000N/AN/A30.1273(F), 23(C)60(F), 16(C)65%10OVC050N/AN/AN/AN/A76 F1471
18/08/2020:1016003N/AN/A30.1273(F), 23(C)60(F), 16(C)65%10BKN050N/AN/AN/AN/A76 F1466
18/08/2020:0514003N/AN/A30.1273(F), 23(C)61(F), 16(C)65%10BKN050N/AN/AN/AN/A76 F1461
18/08/2020:0000000N/AN/A30.1273(F), 23(C)60(F), 16(C)65%10BKN050N/AN/AN/AN/A76 F1456
18/08/2019:5518003N/AN/A30.1273(F), 23(C)58(F), 14(C)57%10BKN050N/AN/AN/AN/A77 F1451
18/08/2019:5020006N/AN/A30.1274(F), 23(C)58(F), 14(C)57%10BKN050N/AN/A2000N/A77 F1446
18/08/2019:4518006N/AN/A30.1275(F), 24(C)60(F), 16(C)61%10BKN050N/AN/A2100N/A77 F1441
18/08/2019:4000000N/AN/A30.1275(F), 24(C)60(F), 16(C)61%10BKN050N/AN/A2100N/A77 F1436
18/08/2019:3516005N/AN/A30.1275(F), 24(C)59(F), 15(C)57%10BKN050N/AN/A2100N/A77 F1431
18/08/2019:3016005N/AN/A30.1275(F), 24(C)61(F), 16(C)61%10BKN050N/AN/A2100N/A77 F1426
18/08/2019:2517003N/AN/A30.1274(F), 23(C)59(F), 15(C)61%10BKN050N/AN/A2000N/A77 F1421
18/08/2019:2017005N/AN/A30.1275(F), 24(C)60(F), 16(C)61%10BKN050N/AN/A2100N/A77 F1416
18/08/2019:1516003N/AN/A30.1275(F), 24(C)58(F), 14(C)54%10SCT050N/AN/A2100N/A78 F1411
18/08/2019:1000000N/AN/A30.1275(F), 24(C)59(F), 15(C)57%10SCT050N/AN/A2100N/A77 F1406
18/08/2019:0500000N/AN/A30.1275(F), 24(C)58(F), 14(C)54%10SCT050N/AN/A2100N/A78 F1401
18/08/2019:0000000N/AN/A30.1275(F), 24(C)59(F), 15(C)57%10SCT050N/AN/A2100N/A77 F1396
18/08/2018:5500000N/AN/A30.1275(F), 24(C)59(F), 15(C)57%10SCT050N/AN/A2100N/A77 F1391
18/08/2018:5000000N/AN/A30.1375(F), 24(C)58(F), 14(C)54%10SCT050N/AN/A2100N/A78 F1386
18/08/2018:4500000N/AN/A30.1375(F), 24(C)59(F), 15(C)57%10SCT042 SCT050N/AN/A2100N/A77 F1381
18/08/2018:4000000N/AN/A30.1475(F), 24(C)59(F), 15(C)57%10SCT042 SCT050N/AN/A2100N/A77 F1376
18/08/2018:3500000N/AN/A30.1475(F), 24(C)59(F), 15(C)57%10SCT050N/AN/A2100N/A77 F1371
18/08/2018:3014003N/AN/A30.1475(F), 24(C)59(F), 15(C)57%10SCT050N/AN/A2100N/A77 F1366
18/08/2018:2512003N/AN/A30.1475(F), 24(C)60(F), 16(C)61%10BKN050N/AN/A2100N/A77 F1361
18/08/2018:2000000N/AN/A30.1475(F), 24(C)59(F), 15(C)57%10BKN050N/AN/A2100N/A77 F1356
18/08/2018:1500000N/AN/A30.1473(F), 23(C)56(F), 13(C)53%10BKN050N/AN/AN/AN/A77 F1351
18/08/2018:1000000N/AN/A30.1573(F), 23(C)58(F), 14(C)57%10BKN050N/AN/AN/AN/A77 F1346
18/08/2018:0500000N/AN/A30.1573(F), 23(C)58(F), 14(C)57%10BKN050N/AN/AN/AN/A77 F1341
18/08/2018:0000000N/AN/A30.1573(F), 23(C)58(F), 14(C)57%10BKN050N/AN/AN/AN/A77 F1336
18/08/2017:5500000N/AN/A30.1573(F), 23(C)58(F), 14(C)57%10SCT050N/AN/AN/AN/A77 F1331
18/08/2017:5026003N/AN/A30.1573(F), 23(C)58(F), 14(C)57%10SCT046N/AN/AN/AN/A77 F1326
18/08/2017:4500000N/AN/A30.1573(F), 23(C)58(F), 14(C)57%10SCT046N/AN/AN/AN/A77 F1321
18/08/2017:4000000N/AN/A30.1573(F), 23(C)58(F), 14(C)57%10SCT044 SCT050N/AN/AN/AN/A77 F1316
18/08/2017:3500000N/AN/A30.1573(F), 23(C)57(F), 14(C)57%10SCT044 BKN050N/AN/AN/AN/A77 F1311
18/08/2017:3000000N/AN/A30.1574(F), 23(C)57(F), 14(C)57%10BKN044 BKN050N/AN/AN/AN/A77 F1306
18/08/2017:2530003N/AN/A30.1573(F), 23(C)56(F), 13(C)53%10BKN044N/AN/AN/AN/A77 F1301
18/08/2017:2029003N/AN/A30.1573(F), 23(C)57(F), 14(C)57%10BKN044N/AN/AN/AN/A77 F1296
18/08/2017:1529003N/AN/A30.1573(F), 23(C)57(F), 14(C)57%10BKN044N/AN/AN/AN/A77 F1291
18/08/2017:1024003N/AN/A30.1673(F), 23(C)58(F), 14(C)57%10SCT044N/AN/AN/AN/A77 F1286
18/08/2017:0500000N/AN/A30.1673(F), 23(C)56(F), 13(C)53%10BKN044N/AN/AN/AN/A77 F1281
18/08/2017:0000000N/AN/A30.1673(F), 23(C)56(F), 13(C)53%10BKN044N/AN/AN/AN/A77 F1276
18/08/2016:5500000N/AN/A30.1673(F), 23(C)57(F), 14(C)57%10BKN044N/AN/AN/AN/A77 F1271
18/08/2016:5000000N/AN/A30.1673(F), 23(C)57(F), 14(C)57%10BKN044N/AN/AN/AN/A77 F1266
18/08/2016:4500000N/AN/A30.1773(F), 23(C)57(F), 14(C)57%10SCT042N/AN/AN/AN/A77 F1261
18/08/2016:4000000N/AN/A30.1773(F), 23(C)56(F), 13(C)53%10SCT042N/AN/AN/AN/A77 F1256
18/08/2016:3500000N/AN/A30.1774(F), 23(C)56(F), 13(C)53%10SCT042N/AN/AN/AN/A77 F1251
18/08/2016:3021003N/AN/A30.1774(F), 23(C)58(F), 14(C)57%10SCT042N/AN/AN/AN/A77 F1246
18/08/2016:2500000N/AN/A30.1773(F), 23(C)57(F), 14(C)57%10SCT042N/AN/AN/AN/A77 F1241
18/08/2016:2000000N/AN/A30.1773(F), 23(C)57(F), 14(C)57%10SCT042N/AN/AN/AN/A77 F1236
18/08/2016:1500000N/AN/A30.1873(F), 23(C)57(F), 14(C)57%10SCT039 SCT045N/AN/AN/AN/A77 F1231
18/08/2016:1036003N/AN/A30.1873(F), 23(C)57(F), 14(C)57%10SCT032 BKN041N/AN/AN/AN/A77 F1226
18/08/2016:0500000N/AN/A30.1873(F), 23(C)57(F), 14(C)57%10SCT032 BKN041N/AN/AN/AN/A77 F1221
18/08/2016:0000000N/AN/A30.1873(F), 23(C)60(F), 16(C)65%10SCT034 BKN041N/AN/AN/AN/A76 F1216
18/08/2015:5519003N/AN/A30.1873(F), 23(C)59(F), 15(C)61%10BKN034 BKN043N/AN/AN/AN/A76 F1211
18/08/2015:5000000N/AN/A30.1873(F), 23(C)61(F), 16(C)65%10BKN034 BKN043N/AN/AN/AN/A76 F1206
18/08/2015:4500000N/AN/A30.1873(F), 23(C)62(F), 17(C)69%10BKN034N/AN/AN/AN/A75 F1201
18/08/2015:4004003N/AN/A30.1871(F), 22(C)60(F), 16(C)69%10BKN034N/AN/AN/AN/A74 F1196
18/08/2015:3500000N/AN/A30.1873(F), 23(C)61(F), 16(C)65%10SCT034N/AN/AN/AN/A76 F1191
18/08/2015:3000000N/AN/A30.1873(F), 23(C)62(F), 17(C)69%10SCT034N/AN/AN/AN/A75 F1186
18/08/2015:2500000N/AN/A30.1873(F), 23(C)62(F), 17(C)69%10SCT034N/AN/AN/AN/A75 F1181
18/08/2015:2000000N/AN/A30.1872(F), 22(C)61(F), 16(C)69%10SCT034N/AN/AN/AN/A75 F1176
18/08/2015:1500000N/AN/A30.1870(F), 21(C)60(F), 16(C)73%10SCT034N/AN/AN/A70 FN/A1171
18/08/2015:1003004N/AN/A30.1870(F), 21(C)61(F), 16(C)73%10SCT034N/AN/AN/A70 FN/A1166
18/08/2015:0500000N/AN/A30.1970(F), 21(C)60(F), 16(C)73%10SCT034N/AN/AN/A70 FN/A1161
18/08/2015:0003004N/AN/A30.1969(F), 21(C)60(F), 16(C)73%10CLRN/AN/AN/A69 FN/A1156
18/08/2014:5502004N/AN/A30.1869(F), 21(C)59(F), 15(C)69%10CLRN/AN/AN/A69 FN/A1151
18/08/2014:5004004N/AN/A30.1868(F), 20(C)59(F), 15(C)73%10CLRN/AN/AN/A68 FN/A1146
18/08/2014:4500000N/AN/A30.1868(F), 20(C)60(F), 16(C)78%10CLRN/AN/AN/A68 FN/A1141
18/08/2014:4000000N/AN/A30.1968(F), 20(C)59(F), 15(C)73%10CLRN/AN/AN/A68 FN/A1136
18/08/2014:3506004N/AN/A30.1868(F), 20(C)59(F), 15(C)73%10CLRN/AN/AN/A68 FN/A1131
18/08/2014:3006004N/AN/A30.1968(F), 20(C)59(F), 15(C)73%10CLRN/AN/AN/A68 FN/A1126
18/08/2014:2505005N/AN/A30.1968(F), 20(C)59(F), 15(C)73%10CLRN/AN/AN/A69 FN/A1121
18/08/2014:2006003N/AN/A30.1968(F), 20(C)60(F), 16(C)78%10CLRN/AN/AN/A68 FN/A1116
18/08/2014:1500000N/AN/A30.1968(F), 20(C)60(F), 16(C)78%10CLRN/AN/AN/A68 FN/A1111
18/08/2014:1006003N/AN/A30.1968(F), 20(C)60(F), 16(C)78%10CLRN/AN/AN/A68 FN/A1106
18/08/2014:0508005N/AN/A30.1968(F), 20(C)60(F), 16(C)78%10CLRN/AN/AN/A69 FN/A1101
18/08/2014:0011003N/AN/A30.1968(F), 20(C)61(F), 16(C)78%10CLRN/AN/AN/A68 FN/A1096
18/08/2013:5500000N/AN/A30.1968(F), 20(C)62(F), 17(C)83%10CLRN/AN/AN/A68 FN/A1091
18/08/2013:5000000N/AN/A30.1968(F), 20(C)61(F), 16(C)78%10CLRN/AN/AN/A68 FN/A1086
18/08/2013:4512003N/AN/A30.1968(F), 20(C)62(F), 17(C)83%10CLRN/AN/AN/A68 FN/A1081
18/08/2013:4000000N/AN/A30.1867(F), 19(C)62(F), 17(C)88%10CLRN/AN/AN/A67 FN/A1076
18/08/2013:3500000N/AN/A30.1865(F), 18(C)61(F), 16(C)88%10CLRN/AN/AN/A65 FN/A1071
18/08/2013:3000000N/AN/A30.1865(F), 18(C)61(F), 16(C)88%10SCT070N/AN/AN/A65 FN/A1066
18/08/2013:2500000N/AN/A30.1865(F), 18(C)60(F), 16(C)88%10SCT070N/AN/AN/A65 FN/A1061
18/08/2013:2000000N/AN/A30.1865(F), 18(C)61(F), 16(C)88%10SCT070N/AN/AN/A65 FN/A1056
18/08/2013:1500000N/AN/A30.1863(F), 17(C)60(F), 16(C)94%10SCT070N/AN/AN/A63 FN/A1051
18/08/2013:1000000N/AN/A30.1863(F), 17(C)59(F), 15(C)88%10BKN070N/AN/AN/A63 FN/A1046
18/08/2013:0500000N/AN/A30.1863(F), 17(C)60(F), 16(C)94%10BKN070N/AN/AN/A63 FN/A1041
18/08/2013:0000000N/AN/A30.1862(F), 17(C)60(F), 16(C)94%10OVC070N/AN/AN/A62 FN/A1036
18/08/2012:5500000N/AN/A30.1861(F), 16(C)59(F), 15(C)94%10BKN070N/AN/AN/A61 FN/A1031
18/08/2012:5000000N/AN/A30.1861(F), 16(C)60(F), 16(C)100%10BKN070N/AN/AN/A61 FN/A1026
18/08/2012:4500000N/AN/A30.1861(F), 16(C)59(F), 15(C)94%10BKN070N/AN/AN/A61 FN/A1021
18/08/2012:4000000N/AN/A30.1860(F), 16(C)60(F), 16(C)100%10SCT003 BKN070N/AN/AN/A60 FN/A1016
18/08/2012:3500000N/AN/A30.1860(F), 16(C)60(F), 16(C)100%10SCT003 BKN070N/AN/AN/A60 FN/A1011
18/08/2012:3000000N/AN/A30.1860(F), 16(C)60(F), 16(C)100%10SCT003 BKN070N/AN/AN/A60 FN/A1006
18/08/2012:2500000N/AN/A30.1859(F), 15(C)59(F), 15(C)100%10BKN003 BKN070N/AN/AN/A59 FN/A1001
18/08/2012:2006005N/AN/A30.1759(F), 15(C)59(F), 15(C)100%7BKN003 BKN070N/AN/AN/A59 FN/A996
18/08/2012:1507003N/AN/A30.1859(F), 15(C)59(F), 15(C)100%7BKN003 OVC070N/AN/AN/A59 FN/A991
18/08/2012:1000000N/AN/A30.1859(F), 15(C)59(F), 15(C)100%5BKN003 OVC070N/AMist N/A59 FN/A986
18/08/2012:0500000N/AN/A30.1859(F), 15(C)59(F), 15(C)100%5BKN003 OVC070N/AMist N/A59 FN/A981
18/08/2012:0000000N/AN/A30.1859(F), 15(C)59(F), 15(C)100%5BKN003 OVC070N/AMist N/A59 FN/A976
18/08/2011:5500000N/AN/A30.1859(F), 15(C)59(F), 15(C)100%5SCT003 OVC070N/AMist N/A59 FN/A971
18/08/2011:5000000N/AN/A30.1858(F), 14(C)58(F), 14(C)100%4SCT003 OVC070N/AMist N/A58 FN/A966
18/08/2011:4507004N/AN/A30.1858(F), 14(C)58(F), 14(C)100%4OVC070N/AMist N/A58 FN/A961
18/08/2011:4007003N/AN/A30.1858(F), 14(C)58(F), 14(C)100%2 1/2OVC070N/AMist N/A58 FN/A956
18/08/2011:3500000N/AN/A30.1859(F), 15(C)59(F), 15(C)100%1 3/4SCT004 OVC070N/AMist N/A59 FN/A951
18/08/2011:3000000N/AN/A30.1858(F), 14(C)58(F), 14(C)100%1 3/4SCT004 OVC070N/AMist N/A58 FN/A946
18/08/2011:2500000N/AN/A30.1858(F), 14(C)58(F), 14(C)100%2SCT004 OVC070N/AMist N/A58 FN/A941
18/08/2011:2000000N/AN/A30.1858(F), 14(C)58(F), 14(C)100%3BKN070N/AMist N/A58 FN/A936
18/08/2011:1500000N/AN/A30.1858(F), 14(C)58(F), 14(C)100%5BKN070N/AMist N/A58 FN/A931
18/08/2011:1000000N/AN/A30.1858(F), 14(C)58(F), 14(C)100%10SCT070N/AN/AN/A58 FN/A926
18/08/2011:0500000N/AN/A30.1858(F), 14(C)58(F), 14(C)100%10SCT070N/AN/AN/A58 FN/A921
18/08/2011:0000000N/AN/A30.1858(F), 14(C)58(F), 14(C)100%10CLRN/AN/AN/A58 FN/A916
18/08/2010:5500000N/AN/A30.1858(F), 14(C)58(F), 14(C)100%10CLRN/AN/AN/A58 FN/A911
18/08/2010:5000000N/AN/A30.1858(F), 14(C)58(F), 14(C)100%10CLRN/AN/AN/A58 FN/A906
18/08/2010:4500000N/AN/A30.1858(F), 14(C)58(F), 14(C)100%10CLRN/AN/AN/A58 FN/A901
18/08/2010:4000000N/AN/A30.1858(F), 14(C)58(F), 14(C)100%10CLRN/AN/AN/A58 FN/A896
18/08/2010:3500000N/AN/A30.1758(F), 14(C)58(F), 14(C)100%10CLRN/AN/AN/A58 FN/A891
18/08/2010:3000000N/AN/A30.1758(F), 14(C)58(F), 14(C)100%10CLRN/AN/AN/A58 FN/A886
18/08/2010:2500000N/AN/A30.1759(F), 15(C)59(F), 15(C)100%10CLRN/AN/AN/A59 FN/A881
18/08/2010:2000000N/AN/A30.1659(F), 15(C)59(F), 15(C)100%10CLRN/AN/AN/A59 FN/A876
18/08/2010:1500000N/AN/A30.1659(F), 15(C)59(F), 15(C)100%10CLRN/AN/AN/A59 FN/A871
18/08/2010:1000000N/AN/A30.1659(F), 15(C)59(F), 15(C)100%10SCT060N/AN/AN/A59 FN/A866
18/08/2010:0500000N/AN/A30.1659(F), 15(C)59(F), 15(C)100%10SCT060N/AN/AN/A59 FN/A861
18/08/2010:0000000N/AN/A30.1659(F), 15(C)59(F), 15(C)100%10SCT060N/AN/AN/A59 FN/A856
18/08/2009:5500000N/AN/A30.1660(F), 16(C)60(F), 16(C)100%10BKN060N/AN/AN/A60 FN/A851
18/08/2009:5000000N/AN/A30.1660(F), 16(C)60(F), 16(C)100%10BKN060N/AN/AN/A60 FN/A846
18/08/2009:4500000N/AN/A30.1660(F), 16(C)60(F), 16(C)100%10OVC060N/AN/AN/A60 FN/A841
18/08/2009:4000000N/AN/A30.1660(F), 16(C)60(F), 16(C)100%10OVC060N/AN/AN/A60 FN/A836
18/08/2009:3500000N/AN/A30.1660(F), 16(C)60(F), 16(C)100%10OVC060N/AN/AN/A60 FN/A831
18/08/2009:3000000N/AN/A30.1660(F), 16(C)60(F), 16(C)100%10OVC060N/AN/AN/A60 FN/A826
18/08/2009:2500000N/AN/A30.1660(F), 16(C)60(F), 16(C)100%10SCT004 OVC060N/AN/AN/A60 FN/A821
18/08/2009:2000000N/AN/A30.1661(F), 16(C)61(F), 16(C)100%10SCT004 OVC060N/AN/AN/A61 FN/A816
18/08/2009:1500000N/AN/A30.1661(F), 16(C)61(F), 16(C)100%10OVC060N/AN/AN/A61 FN/A811
18/08/2009:1000000N/AN/A30.1661(F), 16(C)61(F), 16(C)100%10OVC060N/AN/AN/A61 FN/A806
18/08/2009:0500000N/AN/A30.1561(F), 16(C)61(F), 16(C)100%10OVC060N/AN/AN/A61 FN/A801
18/08/2009:0000000N/AN/A30.1561(F), 16(C)61(F), 16(C)100%10OVC060N/AN/AN/A61 FN/A796
18/08/2008:5500000N/AN/A30.1561(F), 16(C)61(F), 16(C)100%10OVC060N/AN/AN/A61 FN/A791
18/08/2008:5000000N/AN/A30.1661(F), 16(C)61(F), 16(C)100%10OVC060N/AN/AN/A61 FN/A786
18/08/2008:4500000N/AN/A30.1661(F), 16(C)61(F), 16(C)100%10OVC060N/AN/AN/A61 FN/A781
18/08/2008:4000000N/AN/A30.1661(F), 16(C)61(F), 16(C)100%10OVC060N/AN/AN/A61 FN/A776
18/08/2008:3500000N/AN/A30.1661(F), 16(C)61(F), 16(C)100%10OVC060N/AN/AN/A61 FN/A771
18/08/2008:3000000N/AN/A30.1561(F), 16(C)61(F), 16(C)100%10OVC060N/AN/AN/A61 FN/A766
18/08/2008:2500000N/AN/A30.1561(F), 16(C)61(F), 16(C)100%10OVC060N/AN/AN/A61 FN/A761
18/08/2008:2000000N/AN/A30.1561(F), 16(C)61(F), 16(C)100%10OVC060N/AN/AN/A61 FN/A756
18/08/2008:1500000N/AN/A30.1561(F), 16(C)61(F), 16(C)100%10OVC060N/AN/AN/A61 FN/A751
18/08/2008:1000000N/AN/A30.1561(F), 16(C)61(F), 16(C)100%10OVC060N/AN/AN/A61 FN/A746
18/08/2008:0500000N/AN/A30.1561(F), 16(C)61(F), 16(C)100%10OVC060N/AN/AN/A61 FN/A741
18/08/2008:0000000N/AN/A30.1561(F), 16(C)61(F), 16(C)100%10OVC060N/AN/AN/A61 FN/A736
18/08/2007:5500000N/AN/A30.1462(F), 17(C)62(F), 17(C)100%10OVC060N/AN/AN/A62 FN/A731
18/08/2007:5000000N/AN/A30.1462(F), 17(C)62(F), 17(C)100%10OVC060N/AN/AN/A62 FN/A726
18/08/2007:4500000N/AN/A30.1462(F), 17(C)62(F), 17(C)100%10OVC060N/AN/AN/A62 FN/A721
18/08/2007:4000000N/AN/A30.1462(F), 17(C)62(F), 17(C)100%10OVC060N/AN/AN/A62 FN/A716
18/08/2007:3500000N/AN/A30.1463(F), 17(C)63(F), 17(C)100%10OVC060N/AN/AN/A63 FN/A711
18/08/2007:3000000N/AN/A30.1463(F), 17(C)63(F), 17(C)100%10OVC060N/AN/AN/A63 FN/A706
18/08/2007:2500000N/AN/A30.1463(F), 17(C)63(F), 17(C)100%10OVC060N/AN/AN/A63 FN/A701
18/08/2007:2000000N/AN/A30.1463(F), 17(C)63(F), 17(C)100%10OVC060N/AN/AN/A63 FN/A696
18/08/2007:1500000N/AN/A30.1463(F), 17(C)63(F), 17(C)100%10OVC060N/AN/AN/A63 FN/A691
18/08/2007:1000000N/AN/A30.1363(F), 17(C)63(F), 17(C)100%10OVC060N/AN/AN/A63 FN/A686
18/08/2007:0500000N/AN/A30.1363(F), 17(C)63(F), 17(C)100%10OVC060N/AN/AN/A63 FN/A681
18/08/2007:0000000N/AN/A30.1363(F), 17(C)63(F), 17(C)100%10OVC060N/AN/AN/A63 FN/A676
18/08/2006:5500000N/AN/A30.1363(F), 17(C)63(F), 17(C)100%10OVC060N/AN/AN/A63 FN/A671
18/08/2006:5000000N/AN/A30.1363(F), 17(C)63(F), 17(C)100%10OVC060N/AN/AN/A63 FN/A666
18/08/2006:4500000N/AN/A30.1363(F), 17(C)63(F), 17(C)100%10OVC060N/AN/AN/A63 FN/A661
18/08/2006:4000000N/AN/A30.1363(F), 17(C)63(F), 17(C)100%10OVC060N/AN/AN/A63 FN/A656
18/08/2006:3500000N/AN/A30.1363(F), 17(C)63(F), 17(C)100%10OVC060N/AN/AN/A63 FN/A651
18/08/2006:3000000N/AN/A30.1363(F), 17(C)63(F), 17(C)100%10OVC060N/AN/AN/A63 FN/A646
18/08/2006:2500000N/AN/A30.1363(F), 17(C)63(F), 17(C)100%10OVC060N/AN/AN/A63 FN/A641
18/08/2006:2000000N/AN/A30.1363(F), 17(C)63(F), 17(C)100%10OVC060N/AN/AN/A63 FN/A636
18/08/2006:1500000N/AN/A30.1363(F), 17(C)63(F), 17(C)100%10OVC060N/AN/AN/A63 FN/A631
18/08/2006:1000000N/AN/A30.1363(F), 17(C)63(F), 17(C)100%10OVC060N/AN/AN/A63 FN/A626
18/08/2006:0500000N/AN/A30.1363(F), 17(C)63(F), 17(C)100%10OVC060N/AN/AN/A63 FN/A621
18/08/2006:0000000N/AN/A30.1363(F), 17(C)63(F), 17(C)100%10OVC060N/AN/AN/A63 FN/A616
18/08/2005:5500000N/AN/A30.1364(F), 18(C)64(F), 18(C)100%10OVC060N/AN/AN/A64 FN/A611
18/08/2005:5000000N/AN/A30.1365(F), 18(C)65(F), 18(C)100%10OVC060N/AN/AN/A65 FN/A606
18/08/2005:4500000N/AN/A30.1365(F), 18(C)65(F), 18(C)100%10OVC060N/AN/AN/A65 FN/A601
18/08/2005:4000000N/AN/A30.1365(F), 18(C)65(F), 18(C)100%10OVC060N/AN/AN/A65 FN/A596
18/08/2005:3500000N/AN/A30.1265(F), 18(C)65(F), 18(C)100%10OVC060N/AN/AN/A65 FN/A591
18/08/2005:3000000N/AN/A30.1264(F), 18(C)64(F), 18(C)100%10OVC060N/AN/AN/A64 FN/A586
18/08/2005:2500000N/AN/A30.1265(F), 18(C)65(F), 18(C)100%10OVC060N/AN/AN/A65 FN/A581
18/08/2005:2000000N/AN/A30.1265(F), 18(C)65(F), 18(C)100%10OVC060N/AN/AN/A65 FN/A576
18/08/2005:1500000N/AN/A30.1265(F), 18(C)65(F), 18(C)100%10OVC060N/AN/AN/A65 FN/A571
18/08/2005:1000000N/AN/A30.1265(F), 18(C)65(F), 18(C)100%10OVC060N/AN/AN/A65 FN/A566
18/08/2005:0500000N/AN/A30.1265(F), 18(C)65(F), 18(C)100%10OVC060N/AN/AN/A65 FN/A561
18/08/2005:0000000N/AN/A30.1265(F), 18(C)65(F), 18(C)100%10OVC060N/AN/AN/A65 FN/A556
18/08/2004:5500000N/AN/A30.1265(F), 18(C)65(F), 18(C)100%10OVC060N/AN/AN/A65 FN/A551
18/08/2004:5000000N/AN/A30.1265(F), 18(C)65(F), 18(C)100%10OVC060N/AN/AN/A65 FN/A546
18/08/2004:4500000N/AN/A30.1265(F), 18(C)65(F), 18(C)100%10OVC060N/AN/AN/A65 FN/A541
18/08/2004:4000000N/AN/A30.1265(F), 18(C)65(F), 18(C)100%10OVC060N/AN/AN/A65 FN/A536
18/08/2004:3500000N/AN/A30.1265(F), 18(C)65(F), 18(C)100%10OVC060N/AN/AN/A65 FN/A531
18/08/2004:3000000N/AN/A30.1265(F), 18(C)65(F), 18(C)100%10OVC060N/AN/AN/A65 FN/A526
18/08/2004:2500000N/AN/A30.1265(F), 18(C)65(F), 18(C)100%10OVC060N/AN/AN/A65 FN/A521
18/08/2004:2000000N/AN/A30.1265(F), 18(C)65(F), 18(C)100%10OVC060N/AN/AN/A65 FN/A516
18/08/2004:1500000N/AN/A30.1165(F), 18(C)65(F), 18(C)100%10OVC060N/AN/AN/A65 FN/A511
18/08/2004:1000000N/AN/A30.1165(F), 18(C)65(F), 18(C)100%10OVC060N/AN/AN/A65 FN/A506
18/08/2004:0500000N/AN/A30.1165(F), 18(C)65(F), 18(C)100%10OVC060N/AN/AN/A65 FN/A501
18/08/2004:0000000N/AN/A30.1165(F), 18(C)65(F), 18(C)100%10OVC060N/AN/AN/A65 FN/A496
18/08/2003:5500000N/AN/A30.1165(F), 18(C)65(F), 18(C)100%10OVC060N/AN/AN/A65 FN/A491
18/08/2003:5000000N/AN/A30.1165(F), 18(C)65(F), 18(C)100%10OVC060N/AN/AN/A65 FN/A486
18/08/2003:4500000N/AN/A30.1165(F), 18(C)65(F), 18(C)100%10OVC060N/AN/AN/A65 FN/A481
18/08/2003:4000000N/AN/A30.1165(F), 18(C)65(F), 18(C)100%10OVC060N/AN/AN/A65 FN/A476
18/08/2003:3500000N/AN/A30.1165(F), 18(C)65(F), 18(C)100%10OVC060N/AN/AN/A65 FN/A471
18/08/2003:3000000N/AN/A30.1165(F), 18(C)65(F), 18(C)100%10OVC060N/AN/AN/A65 FN/A466
18/08/2003:2500000N/AN/A30.1165(F), 18(C)65(F), 18(C)100%10OVC060N/AN/AN/A65 FN/A461
18/08/2003:2000000N/AN/A30.1165(F), 18(C)65(F), 18(C)100%10OVC060N/AN/AN/A65 FN/A456
18/08/2003:1500000N/AN/A30.1165(F), 18(C)65(F), 18(C)100%10OVC060N/AN/AN/A65 FN/A451
18/08/2003:1000000N/AN/A30.1165(F), 18(C)65(F), 18(C)100%10OVC060N/AN/AN/A65 FN/A446
18/08/2003:0500000N/AN/A30.1165(F), 18(C)65(F), 18(C)100%10OVC060N/AN/AN/A65 FN/A441
18/08/2003:0000000N/AN/A30.1165(F), 18(C)65(F), 18(C)100%10OVC060N/AN/AN/A65 FN/A436
18/08/2002:5500000N/AN/A30.1166(F), 19(C)66(F), 19(C)100%10OVC060N/AN/AN/A66 FN/A431
18/08/2002:5000000N/AN/A30.1167(F), 19(C)67(F), 19(C)100%10SCT041 OVC060N/AN/AN/A67 FN/A426
18/08/2002:4500000N/AN/A30.1168(F), 20(C)67(F), 19(C)94%10SCT041 OVC060N/AN/AN/A68 FN/A421
18/08/2002:4000000N/AN/A30.1168(F), 20(C)67(F), 19(C)94%10SCT039 SCT044 OVC060N/AN/AN/A68 FN/A416
18/08/2002:3500000N/AN/A30.1168(F), 20(C)68(F), 20(C)100%10SCT039 OVC060N/AN/AN/A68 FN/A411
18/08/2002:3000000N/AN/A30.1168(F), 20(C)67(F), 19(C)94%10BKN039 OVC060N/AN/AN/A68 FN/A406
18/08/2002:2500000N/AN/A30.1168(F), 20(C)67(F), 19(C)94%10BKN039 OVC060N/AN/AN/A68 FN/A401
18/08/2002:2000000N/AN/A30.1168(F), 20(C)67(F), 19(C)94%10SCT037 OVC060N/AN/AN/A68 FN/A396
18/08/2002:1500000N/AN/A30.1168(F), 20(C)67(F), 19(C)94%10SCT037 OVC060N/AN/AN/A68 FN/A391
18/08/2002:1000000N/AN/A30.1168(F), 20(C)67(F), 19(C)94%10SCT037 OVC060N/AN/AN/A68 FN/A386
18/08/2002:0500000N/AN/A30.1168(F), 20(C)67(F), 19(C)94%10OVC060N/AN/AN/A68 FN/A381
18/08/2002:0000000N/AN/A30.1168(F), 20(C)66(F), 19(C)94%10OVC060N/AN/AN/A68 FN/A376
18/08/2001:5500000N/AN/A30.1168(F), 20(C)66(F), 19(C)94%10OVC060N/AN/AN/A68 FN/A371
18/08/2001:5000000N/AN/A30.1168(F), 20(C)66(F), 19(C)94%10OVC060N/AN/AN/A68 FN/A366
18/08/2001:4500000N/AN/A30.1168(F), 20(C)67(F), 19(C)94%10OVC060N/AN/AN/A68 FN/A361
18/08/2001:4000000N/AN/A30.1168(F), 20(C)66(F), 19(C)94%10OVC060N/AN/AN/A68 FN/A356
18/08/2001:3500000N/AN/A30.1068(F), 20(C)66(F), 19(C)94%10OVC060N/AN/AN/A68 FN/A351
18/08/2001:3000000N/AN/A30.1068(F), 20(C)66(F), 19(C)94%10OVC060N/AN/AN/A68 FN/A346
18/08/2001:2500000N/AN/A30.1068(F), 20(C)66(F), 19(C)94%10OVC060N/AN/AN/A68 FN/A341
18/08/2001:2000000N/AN/A30.1068(F), 20(C)66(F), 19(C)94%10OVC060N/AN/AN/A68 FN/A336
18/08/2001:1500000N/AN/A30.1068(F), 20(C)66(F), 19(C)94%10OVC060N/AN/AN/A68 FN/A331
18/08/2001:1000000N/AN/A30.0968(F), 20(C)66(F), 19(C)94%10OVC060N/AN/AN/A68 FN/A326
18/08/2001:0500000N/AN/A30.0968(F), 20(C)66(F), 19(C)94%10OVC060N/AN/AN/A68 FN/A321
18/08/2001:0000000N/AN/A30.0968(F), 20(C)66(F), 19(C)94%10SCT050 OVC060N/AN/AN/A68 FN/A316
18/08/2000:5500000N/AN/A30.0968(F), 20(C)65(F), 18(C)88%10SCT050 OVC060N/AN/AN/A68 FN/A311
18/08/2000:5000000N/AN/A30.0968(F), 20(C)65(F), 18(C)88%10SCT050 OVC060N/AN/AN/A68 FN/A306
18/08/2000:4500000N/AN/A30.0968(F), 20(C)65(F), 18(C)88%10OVC050N/AN/AN/A68 FN/A301
18/08/2000:4000000N/AN/A30.0968(F), 20(C)65(F), 18(C)88%10SCT050 OVC055N/AN/AN/A68 FN/A296
18/08/2000:3500000N/AN/A30.0968(F), 20(C)65(F), 18(C)88%10OVC050N/AN/AN/A68 FN/A291
18/08/2000:3000000N/AN/A30.0868(F), 20(C)66(F), 19(C)94%10OVC050N/AN/AN/A68 FN/A286
18/08/2000:2500000N/AN/A30.0868(F), 20(C)66(F), 19(C)94%10OVC050N/AN/AN/A68 FN/A281
18/08/2000:2000000N/AN/A30.0868(F), 20(C)65(F), 18(C)88%10SCT043 OVC050N/AN/AN/A68 FN/A276
18/08/2000:1500000N/AN/A30.0868(F), 20(C)65(F), 18(C)88%10SCT043 OVC050N/AN/AN/A68 FN/A271
18/08/2000:1000000N/AN/A30.0868(F), 20(C)64(F), 18(C)88%10BKN043 OVC050N/AN/AN/A68 FN/A266
18/08/2000:0500000N/AN/A30.0868(F), 20(C)64(F), 18(C)88%10BKN043 OVC050N/AN/AN/A68 FN/A261
18/08/2000:0000000N/AN/A30.0868(F), 20(C)64(F), 18(C)88%10SCT038 OVC044N/ALight Drizzle N/A68 FN/A256
18/08/1923:5505003N/AN/A30.0868(F), 20(C)64(F), 18(C)88%10OVC041N/ARain N/A68 FN/A251
18/08/1923:5000000N/AN/A30.0868(F), 20(C)63(F), 17(C)83%10SCT037 BKN043 OVC055N/ALight Rain N/A68 FN/A246
18/08/1923:4500000N/AN/A30.0868(F), 20(C)63(F), 17(C)83%10SCT037 BKN043 OVC055N/AN/AN/A68 FN/A241
18/08/1923:4000000N/AN/A30.0868(F), 20(C)63(F), 17(C)83%10SCT037 BKN045 OVC055N/AN/AN/A68 FN/A236
18/08/1923:3500000N/AN/A30.0768(F), 20(C)63(F), 17(C)83%10SCT037 SCT045 OVC055N/AN/AN/A68 FN/A231
18/08/1923:3000000N/AN/A30.0768(F), 20(C)63(F), 17(C)83%10SCT037 SCT043 OVC055N/AN/AN/A68 FN/A226
18/08/1923:2500000N/AN/A30.0768(F), 20(C)63(F), 17(C)83%10OVC055N/AN/AN/A68 FN/A221
18/08/1923:2000000N/AN/A30.0768(F), 20(C)63(F), 17(C)83%10OVC055N/AN/AN/A68 FN/A216